sensor_id;sensor_type;location;lat;lon;timestamp;P1;durP1;ratioP1;P2;durP2;ratioP2
68432;SDS011;55412;51.350;17.056;2022-12-16T00:01:23;55.13;;;20.02;;
68432;SDS011;55412;51.350;17.056;2022-12-16T00:03:51;60.60;;;21.42;;
68432;SDS011;55412;51.350;17.056;2022-12-16T00:06:20;57.00;;;20.73;;
68432;SDS011;55412;51.350;17.056;2022-12-16T00:08:48;53.08;;;18.63;;
68432;SDS011;55412;51.350;17.056;2022-12-16T00:11:14;52.40;;;19.53;;
68432;SDS011;55412;51.350;17.056;2022-12-16T00:13:40;52.85;;;20.27;;
68432;SDS011;55412;51.350;17.056;2022-12-16T00:16:10;56.45;;;19.05;;
68432;SDS011;55412;51.350;17.056;2022-12-16T00:18:38;54.03;;;18.35;;
68432;SDS011;55412;51.350;17.056;2022-12-16T00:21:05;56.60;;;20.17;;
68432;SDS011;55412;51.350;17.056;2022-12-16T00:23:32;51.63;;;19.10;;
68432;SDS011;55412;51.350;17.056;2022-12-16T00:26:00;62.55;;;21.55;;
68432;SDS011;55412;51.350;17.056;2022-12-16T00:28:27;60.70;;;20.92;;
68432;SDS011;55412;51.350;17.056;2022-12-16T00:30:53;61.50;;;22.23;;
68432;SDS011;55412;51.350;17.056;2022-12-16T00:33:21;57.00;;;20.92;;
68432;SDS011;55412;51.350;17.056;2022-12-16T00:35:50;50.63;;;20.40;;
68432;SDS011;55412;51.350;17.056;2022-12-16T00:38:17;49.30;;;17.33;;
68432;SDS011;55412;51.350;17.056;2022-12-16T00:40:43;45.55;;;16.80;;
68432;SDS011;55412;51.350;17.056;2022-12-16T00:43:10;52.97;;;18.70;;
68432;SDS011;55412;51.350;17.056;2022-12-16T00:45:37;57.17;;;19.35;;
68432;SDS011;55412;51.350;17.056;2022-12-16T00:48:04;50.37;;;17.10;;
68432;SDS011;55412;51.350;17.056;2022-12-16T00:50:30;45.50;;;17.83;;
68432;SDS011;55412;51.350;17.056;2022-12-16T00:52:56;51.83;;;19.00;;
68432;SDS011;55412;51.350;17.056;2022-12-16T00:55:22;57.10;;;17.70;;
68432;SDS011;55412;51.350;17.056;2022-12-16T00:57:49;44.30;;;16.52;;
68432;SDS011;55412;51.350;17.056;2022-12-16T01:00:16;42.30;;;17.47;;
68432;SDS011;55412;51.350;17.056;2022-12-16T01:02:43;40.90;;;15.05;;
68432;SDS011;55412;51.350;17.056;2022-12-16T01:05:12;56.75;;;19.27;;
68432;SDS011;55412;51.350;17.056;2022-12-16T01:07:41;50.30;;;20.40;;
68432;SDS011;55412;51.350;17.056;2022-12-16T01:10:08;56.75;;;21.58;;
68432;SDS011;55412;51.350;17.056;2022-12-16T01:12:35;55.17;;;20.93;;
68432;SDS011;55412;51.350;17.056;2022-12-16T01:15:03;60.00;;;21.38;;
68432;SDS011;55412;51.350;17.056;2022-12-16T01:17:31;51.25;;;19.00;;
68432;SDS011;55412;51.350;17.056;2022-12-16T01:19:57;55.75;;;22.70;;
68432;SDS011;55412;51.350;17.056;2022-12-16T01:22:23;59.28;;;21.30;;
68432;SDS011;55412;51.350;17.056;2022-12-16T01:24:49;59.30;;;20.67;;
68432;SDS011;55412;51.350;17.056;2022-12-16T01:27:15;55.38;;;19.95;;
68432;SDS011;55412;51.350;17.056;2022-12-16T01:29:41;57.22;;;20.77;;
68432;SDS011;55412;51.350;17.056;2022-12-16T01:32:08;49.28;;;20.90;;
68432;SDS011;55412;51.350;17.056;2022-12-16T01:34:38;58.92;;;22.80;;
68432;SDS011;55412;51.350;17.056;2022-12-16T01:37:04;57.20;;;19.10;;
68432;SDS011;55412;51.350;17.056;2022-12-16T01:39:30;48.38;;;19.20;;
68432;SDS011;55412;51.350;17.056;2022-12-16T01:41:56;53.63;;;19.42;;
68432;SDS011;55412;51.350;17.056;2022-12-16T01:44:24;56.65;;;20.52;;
68432;SDS011;55412;51.350;17.056;2022-12-16T01:46:55;49.80;;;18.52;;
68432;SDS011;55412;51.350;17.056;2022-12-16T01:49:33;52.67;;;19.73;;
68432;SDS011;55412;51.350;17.056;2022-12-16T01:52:12;51.03;;;18.92;;
68432;SDS011;55412;51.350;17.056;2022-12-16T01:54:50;48.17;;;17.00;;
68432;SDS011;55412;51.350;17.056;2022-12-16T01:57:29;51.40;;;19.00;;
68432;SDS011;55412;51.350;17.056;2022-12-16T02:00:16;50.15;;;18.85;;
68432;SDS011;55412;51.350;17.056;2022-12-16T02:02:42;51.07;;;18.37;;
68432;SDS011;55412;51.350;17.056;2022-12-16T02:05:11;51.22;;;19.05;;
68432;SDS011;55412;51.350;17.056;2022-12-16T02:08:01;54.70;;;19.92;;
68432;SDS011;55412;51.350;17.056;2022-12-16T02:13:25;48.33;;;18.52;;
68432;SDS011;55412;51.350;17.056;2022-12-16T02:16:41;47.93;;;19.27;;
68432;SDS011;55412;51.350;17.056;2022-12-16T02:19:40;56.70;;;19.30;;
68432;SDS011;55412;51.350;17.056;2022-12-16T02:28:27;51.10;;;18.30;;
68432;SDS011;55412;51.350;17.056;2022-12-16T02:40:13;56.40;;;19.52;;
68432;SDS011;55412;51.350;17.056;2022-12-16T02:42:58;47.55;;;18.55;;
68432;SDS011;55412;51.350;17.056;2022-12-16T02:45:31;46.50;;;17.17;;
68432;SDS011;55412;51.350;17.056;2022-12-16T02:47:58;48.38;;;17.40;;
68432;SDS011;55412;51.350;17.056;2022-12-16T02:50:43;50.83;;;17.13;;
68432;SDS011;55412;51.350;17.056;2022-12-16T02:53:14;49.65;;;18.60;;
68432;SDS011;55412;51.350;17.056;2022-12-16T02:56:01;49.57;;;19.27;;
68432;SDS011;55412;51.350;17.056;2022-12-16T03:01:55;45.15;;;15.55;;
68432;SDS011;55412;51.350;17.056;2022-12-16T03:04:52;43.60;;;15.95;;
68432;SDS011;55412;51.350;17.056;2022-12-16T03:07:25;48.28;;;17.50;;
68432;SDS011;55412;51.350;17.056;2022-12-16T03:09:55;47.23;;;16.10;;
68432;SDS011;55412;51.350;17.056;2022-12-16T03:12:23;57.47;;;19.85;;
68432;SDS011;55412;51.350;17.056;2022-12-16T03:14:50;47.70;;;16.33;;
68432;SDS011;55412;51.350;17.056;2022-12-16T03:17:18;49.10;;;17.85;;
68432;SDS011;55412;51.350;17.056;2022-12-16T03:19:55;42.78;;;16.10;;
68432;SDS011;55412;51.350;17.056;2022-12-16T03:22:45;46.63;;;16.93;;
68432;SDS011;55412;51.350;17.056;2022-12-16T03:25:15;55.33;;;17.40;;
68432;SDS011;55412;51.350;17.056;2022-12-16T03:27:58;47.20;;;15.93;;
68432;SDS011;55412;51.350;17.056;2022-12-16T03:30:46;46.65;;;17.20;;
68432;SDS011;55412;51.350;17.056;2022-12-16T03:33:20;43.85;;;15.95;;
68432;SDS011;55412;51.350;17.056;2022-12-16T03:36:08;48.17;;;18.10;;
68432;SDS011;55412;51.350;17.056;2022-12-16T03:38:41;46.65;;;16.58;;
68432;SDS011;55412;51.350;17.056;2022-12-16T03:41:09;45.28;;;15.82;;
68432;SDS011;55412;51.350;17.056;2022-12-16T03:43:37;40.25;;;16.45;;
68432;SDS011;55412;51.350;17.056;2022-12-16T03:46:04;46.40;;;16.13;;
68432;SDS011;55412;51.350;17.056;2022-12-16T03:48:32;46.50;;;15.97;;
68432;SDS011;55412;51.350;17.056;2022-12-16T03:50:59;45.40;;;16.83;;
68432;SDS011;55412;51.350;17.056;2022-12-16T03:53:25;46.45;;;16.00;;
68432;SDS011;55412;51.350;17.056;2022-12-16T03:55:52;44.13;;;15.75;;
68432;SDS011;55412;51.350;17.056;2022-12-16T03:58:19;51.60;;;17.45;;
68432;SDS011;55412;51.350;17.056;2022-12-16T04:00:46;43.83;;;16.03;;
68432;SDS011;55412;51.350;17.056;2022-12-16T04:03:12;45.40;;;16.95;;
68432;SDS011;55412;51.350;17.056;2022-12-16T04:05:38;53.90;;;18.35;;
68432;SDS011;55412;51.350;17.056;2022-12-16T04:08:04;57.03;;;19.17;;
68432;SDS011;55412;51.350;17.056;2022-12-16T04:10:30;47.65;;;17.50;;
68432;SDS011;55412;51.350;17.056;2022-12-16T04:13:15;52.00;;;18.57;;
68432;SDS011;55412;51.350;17.056;2022-12-16T04:16:00;50.03;;;18.17;;
68432;SDS011;55412;51.350;17.056;2022-12-16T04:18:45;43.53;;;17.90;;
68432;SDS011;55412;51.350;17.056;2022-12-16T04:21:30;51.95;;;17.42;;
68432;SDS011;55412;51.350;17.056;2022-12-16T04:24:15;49.95;;;18.17;;
68432;SDS011;55412;51.350;17.056;2022-12-16T04:26:44;58.10;;;20.00;;
68432;SDS011;55412;51.350;17.056;2022-12-16T04:29:29;41.67;;;16.13;;
68432;SDS011;55412;51.350;17.056;2022-12-16T04:31:59;52.15;;;19.90;;
68432;SDS011;55412;51.350;17.056;2022-12-16T04:34:25;48.60;;;19.33;;
68432;SDS011;55412;51.350;17.056;2022-12-16T04:36:57;38.72;;;14.35;;
68432;SDS011;55412;51.350;17.056;2022-12-16T04:39:43;49.27;;;18.23;;
68432;SDS011;55412;51.350;17.056;2022-12-16T04:42:28;49.38;;;16.33;;
68432;SDS011;55412;51.350;17.056;2022-12-16T04:45:13;41.58;;;15.82;;
68432;SDS011;55412;51.350;17.056;2022-12-16T04:47:58;51.55;;;18.52;;
68432;SDS011;55412;51.350;17.056;2022-12-16T04:50:43;40.25;;;15.25;;
68432;SDS011;55412;51.350;17.056;2022-12-16T04:53:27;41.17;;;14.53;;
68432;SDS011;55412;51.350;17.056;2022-12-16T04:56:12;23.25;;;7.75;;
68432;SDS011;55412;51.350;17.056;2022-12-16T04:58:57;39.00;;;14.23;;
68432;SDS011;55412;51.350;17.056;2022-12-16T05:01:42;22.15;;;10.57;;
68432;SDS011;55412;51.350;17.056;2022-12-16T05:04:26;36.10;;;15.10;;
68432;SDS011;55412;51.350;17.056;2022-12-16T05:07:11;39.13;;;15.57;;
68432;SDS011;55412;51.350;17.056;2022-12-16T05:09:55;53.92;;;20.88;;
68432;SDS011;55412;51.350;17.056;2022-12-16T05:12:40;48.70;;;18.65;;
68432;SDS011;55412;51.350;17.056;2022-12-16T05:15:24;54.67;;;18.55;;
68432;SDS011;55412;51.350;17.056;2022-12-16T05:18:10;46.78;;;16.95;;
68432;SDS011;55412;51.350;17.056;2022-12-16T05:21:00;50.20;;;18.30;;
68432;SDS011;55412;51.350;17.056;2022-12-16T05:23:46;54.17;;;19.70;;
68432;SDS011;55412;51.350;17.056;2022-12-16T05:26:30;44.03;;;16.17;;
68432;SDS011;55412;51.350;17.056;2022-12-16T05:29:16;52.67;;;19.73;;
68432;SDS011;55412;51.350;17.056;2022-12-16T05:32:01;49.28;;;16.15;;
68432;SDS011;55412;51.350;17.056;2022-12-16T05:34:45;47.90;;;17.03;;
68432;SDS011;55412;51.350;17.056;2022-12-16T05:37:30;49.38;;;16.92;;
68432;SDS011;55412;51.350;17.056;2022-12-16T05:40:15;42.65;;;16.80;;
68432;SDS011;55412;51.350;17.056;2022-12-16T05:42:59;46.88;;;17.25;;
68432;SDS011;55412;51.350;17.056;2022-12-16T05:45:44;43.80;;;15.80;;
68432;SDS011;55412;51.350;17.056;2022-12-16T05:48:29;45.57;;;17.73;;
68432;SDS011;55412;51.350;17.056;2022-12-16T05:51:13;48.70;;;16.20;;
68432;SDS011;55412;51.350;17.056;2022-12-16T05:53:58;47.90;;;17.52;;
68432;SDS011;55412;51.350;17.056;2022-12-16T05:56:42;45.20;;;17.63;;
68432;SDS011;55412;51.350;17.056;2022-12-16T05:59:27;50.05;;;19.23;;
68432;SDS011;55412;51.350;17.056;2022-12-16T06:02:12;55.83;;;21.73;;
68432;SDS011;55412;51.350;17.056;2022-12-16T06:04:56;142.75;;;47.33;;
68432;SDS011;55412;51.350;17.056;2022-12-16T06:07:41;187.88;;;65.80;;
68432;SDS011;55412;51.350;17.056;2022-12-16T06:10:25;82.60;;;29.15;;
68432;SDS011;55412;51.350;17.056;2022-12-16T06:13:10;83.43;;;30.25;;
68432;SDS011;55412;51.350;17.056;2022-12-16T06:15:55;56.57;;;19.87;;
68432;SDS011;55412;51.350;17.056;2022-12-16T06:18:39;55.60;;;20.65;;
68432;SDS011;55412;51.350;17.056;2022-12-16T06:21:24;58.55;;;20.55;;
68432;SDS011;55412;51.350;17.056;2022-12-16T06:24:09;55.72;;;20.88;;
68432;SDS011;55412;51.350;17.056;2022-12-16T06:26:53;59.00;;;21.63;;
68432;SDS011;55412;51.350;17.056;2022-12-16T06:29:38;58.93;;;20.20;;
68432;SDS011;55412;51.350;17.056;2022-12-16T06:32:22;63.97;;;24.55;;
68432;SDS011;55412;51.350;17.056;2022-12-16T06:35:07;60.65;;;19.55;;
68432;SDS011;55412;51.350;17.056;2022-12-16T06:37:52;55.45;;;19.85;;
68432;SDS011;55412;51.350;17.056;2022-12-16T06:40:36;51.38;;;19.42;;
68432;SDS011;55412;51.350;17.056;2022-12-16T06:43:21;48.67;;;18.43;;
68432;SDS011;55412;51.350;17.056;2022-12-16T06:46:06;54.67;;;19.10;;
68432;SDS011;55412;51.350;17.056;2022-12-16T06:48:50;54.75;;;20.15;;
68432;SDS011;55412;51.350;17.056;2022-12-16T06:51:35;52.90;;;19.52;;
68432;SDS011;55412;51.350;17.056;2022-12-16T06:54:19;67.13;;;26.17;;
68432;SDS011;55412;51.350;17.056;2022-12-16T06:57:04;68.73;;;26.10;;
68432;SDS011;55412;51.350;17.056;2022-12-16T06:59:49;55.22;;;19.55;;
68432;SDS011;55412;51.350;17.056;2022-12-16T07:02:33;50.33;;;19.02;;
68432;SDS011;55412;51.350;17.056;2022-12-16T07:05:18;55.65;;;18.88;;
68432;SDS011;55412;51.350;17.056;2022-12-16T07:08:02;49.88;;;18.13;;
68432;SDS011;55412;51.350;17.056;2022-12-16T07:10:47;41.60;;;16.90;;
68432;SDS011;55412;51.350;17.056;2022-12-16T07:13:31;60.17;;;20.88;;
68432;SDS011;55412;51.350;17.056;2022-12-16T07:16:16;51.85;;;19.02;;
68432;SDS011;55412;51.350;17.056;2022-12-16T07:19:01;51.88;;;18.10;;
68432;SDS011;55412;51.350;17.056;2022-12-16T07:21:45;54.95;;;21.35;;
68432;SDS011;55412;51.350;17.056;2022-12-16T07:24:30;55.23;;;22.87;;
68432;SDS011;55412;51.350;17.056;2022-12-16T07:27:14;53.88;;;19.35;;
68432;SDS011;55412;51.350;17.056;2022-12-16T07:29:59;46.55;;;18.88;;
68432;SDS011;55412;51.350;17.056;2022-12-16T07:32:43;45.63;;;19.20;;
68432;SDS011;55412;51.350;17.056;2022-12-16T07:35:28;55.05;;;21.25;;
68432;SDS011;55412;51.350;17.056;2022-12-16T07:38:12;49.93;;;19.03;;
68432;SDS011;55412;51.350;17.056;2022-12-16T07:40:57;49.03;;;20.90;;
68432;SDS011;55412;51.350;17.056;2022-12-16T07:43:42;55.25;;;19.95;;
68432;SDS011;55412;51.350;17.056;2022-12-16T07:46:26;48.90;;;19.15;;
68432;SDS011;55412;51.350;17.056;2022-12-16T07:49:11;51.45;;;20.45;;
68432;SDS011;55412;51.350;17.056;2022-12-16T07:51:55;50.27;;;20.27;;
68432;SDS011;55412;51.350;17.056;2022-12-16T07:54:40;57.30;;;23.35;;
68432;SDS011;55412;51.350;17.056;2022-12-16T07:57:25;55.15;;;20.95;;
68432;SDS011;55412;51.350;17.056;2022-12-16T08:00:09;52.88;;;19.15;;
68432;SDS011;55412;51.350;17.056;2022-12-16T08:02:54;55.25;;;20.40;;
68432;SDS011;55412;51.350;17.056;2022-12-16T08:05:39;46.50;;;19.23;;
68432;SDS011;55412;51.350;17.056;2022-12-16T08:08:23;54.50;;;21.45;;
68432;SDS011;55412;51.350;17.056;2022-12-16T08:11:08;56.42;;;21.25;;
68432;SDS011;55412;51.350;17.056;2022-12-16T08:13:53;65.97;;;24.35;;
68432;SDS011;55412;51.350;17.056;2022-12-16T08:16:37;54.63;;;22.33;;
68432;SDS011;55412;51.350;17.056;2022-12-16T08:19:22;56.23;;;21.20;;
68432;SDS011;55412;51.350;17.056;2022-12-16T08:22:07;61.50;;;24.77;;
68432;SDS011;55412;51.350;17.056;2022-12-16T08:24:52;72.80;;;27.77;;
68432;SDS011;55412;51.350;17.056;2022-12-16T08:27:36;52.28;;;21.85;;
68432;SDS011;55412;51.350;17.056;2022-12-16T08:30:21;56.17;;;20.83;;
68432;SDS011;55412;51.350;17.056;2022-12-16T08:33:05;54.73;;;21.17;;
68432;SDS011;55412;51.350;17.056;2022-12-16T08:35:50;61.78;;;21.85;;
68432;SDS011;55412;51.350;17.056;2022-12-16T08:38:35;85.10;;;29.50;;
68432;SDS011;55412;51.350;17.056;2022-12-16T08:41:19;79.30;;;29.52;;
68432;SDS011;55412;51.350;17.056;2022-12-16T08:44:04;63.85;;;23.25;;
68432;SDS011;55412;51.350;17.056;2022-12-16T08:46:49;155.97;;;44.33;;
68432;SDS011;55412;51.350;17.056;2022-12-16T08:49:33;225.68;;;63.28;;
68432;SDS011;55412;51.350;17.056;2022-12-16T08:52:18;91.45;;;29.05;;
68432;SDS011;55412;51.350;17.056;2022-12-16T08:55:02;82.18;;;28.40;;
68432;SDS011;55412;51.350;17.056;2022-12-16T08:57:54;79.80;;;28.13;;
68432;SDS011;55412;51.350;17.056;2022-12-16T09:00:38;59.93;;;21.63;;
68432;SDS011;55412;51.350;17.056;2022-12-16T09:03:23;99.45;;;33.00;;
68432;SDS011;55412;51.350;17.056;2022-12-16T09:06:08;85.60;;;30.02;;
68432;SDS011;55412;51.350;17.056;2022-12-16T09:08:52;73.22;;;25.35;;
68432;SDS011;55412;51.350;17.056;2022-12-16T09:11:37;121.45;;;39.17;;
68432;SDS011;55412;51.350;17.056;2022-12-16T09:14:21;77.73;;;28.20;;
68432;SDS011;55412;51.350;17.056;2022-12-16T09:17:06;60.05;;;21.85;;
68432;SDS011;55412;51.350;17.056;2022-12-16T09:19:50;107.95;;;34.47;;
68432;SDS011;55412;51.350;17.056;2022-12-16T09:22:35;102.28;;;32.08;;
68432;SDS011;55412;51.350;17.056;2022-12-16T09:25:20;142.70;;;40.65;;
68432;SDS011;55412;51.350;17.056;2022-12-16T09:28:04;119.67;;;40.03;;
68432;SDS011;55412;51.350;17.056;2022-12-16T09:30:49;132.15;;;40.80;;
68432;SDS011;55412;51.350;17.056;2022-12-16T09:33:34;215.05;;;58.22;;
68432;SDS011;55412;51.350;17.056;2022-12-16T09:36:18;68.65;;;27.00;;
68432;SDS011;55412;51.350;17.056;2022-12-16T09:39:03;72.82;;;26.60;;
68432;SDS011;55412;51.350;17.056;2022-12-16T09:41:54;156.23;;;50.47;;
68432;SDS011;55412;51.350;17.056;2022-12-16T09:48:42;135.45;;;41.67;;
68432;SDS011;55412;51.350;17.056;2022-12-16T09:51:41;147.18;;;48.33;;
68432;SDS011;55412;51.350;17.056;2022-12-16T09:54:28;197.82;;;60.38;;
68432;SDS011;55412;51.350;17.056;2022-12-16T09:57:17;190.40;;;57.93;;
68432;SDS011;55412;51.350;17.056;2022-12-16T10:00:06;117.00;;;44.28;;
68432;SDS011;55412;51.350;17.056;2022-12-16T10:03:05;88.72;;;33.38;;
68432;SDS011;55412;51.350;17.056;2022-12-16T10:19:22;82.25;;;28.88;;
68432;SDS011;55412;51.350;17.056;2022-12-16T10:28:44;71.37;;;25.87;;
68432;SDS011;55412;51.350;17.056;2022-12-16T10:31:31;66.90;;;27.08;;
68432;SDS011;55412;51.350;17.056;2022-12-16T10:34:17;76.22;;;32.28;;
68432;SDS011;55412;51.350;17.056;2022-12-16T10:37:12;78.78;;;31.38;;
68432;SDS011;55412;51.350;17.056;2022-12-16T10:40:12;70.78;;;26.77;;
68432;SDS011;55412;51.350;17.056;2022-12-16T10:43:03;62.07;;;26.83;;
68432;SDS011;55412;51.350;17.056;2022-12-16T10:45:55;64.70;;;27.27;;
68432;SDS011;55412;51.350;17.056;2022-12-16T10:48:41;69.20;;;29.23;;
68432;SDS011;55412;51.350;17.056;2022-12-16T10:51:27;81.40;;;30.98;;
68432;SDS011;55412;51.350;17.056;2022-12-16T10:57:04;68.47;;;29.40;;
68432;SDS011;55412;51.350;17.056;2022-12-16T10:59:53;62.80;;;24.35;;
68432;SDS011;55412;51.350;17.056;2022-12-16T11:03:14;76.95;;;27.67;;
68432;SDS011;55412;51.350;17.056;2022-12-16T11:06:05;68.45;;;28.95;;
68432;SDS011;55412;51.350;17.056;2022-12-16T11:08:50;81.88;;;31.30;;
68432;SDS011;55412;51.350;17.056;2022-12-16T11:11:35;95.27;;;34.03;;
68432;SDS011;55412;51.350;17.056;2022-12-16T11:17:18;106.53;;;38.78;;
68432;SDS011;55412;51.350;17.056;2022-12-16T11:20:21;124.47;;;45.67;;
68432;SDS011;55412;51.350;17.056;2022-12-16T11:23:22;79.25;;;30.27;;
68432;SDS011;55412;51.350;17.056;2022-12-16T11:26:15;94.47;;;35.93;;
68432;SDS011;55412;51.350;17.056;2022-12-16T11:31:57;76.60;;;29.42;;
68432;SDS011;55412;51.350;17.056;2022-12-16T11:35:02;79.57;;;28.95;;
68432;SDS011;55412;51.350;17.056;2022-12-16T11:37:53;80.35;;;31.17;;
68432;SDS011;55412;51.350;17.056;2022-12-16T11:40:39;100.43;;;34.73;;
68432;SDS011;55412;51.350;17.056;2022-12-16T11:43:24;72.00;;;25.95;;
68432;SDS011;55412;51.350;17.056;2022-12-16T11:46:13;68.68;;;23.65;;
68432;SDS011;55412;51.350;17.056;2022-12-16T11:49:15;70.68;;;28.08;;
68432;SDS011;55412;51.350;17.056;2022-12-16T11:52:14;79.43;;;30.33;;
68432;SDS011;55412;51.350;17.056;2022-12-16T12:01:36;70.15;;;27.65;;
68432;SDS011;55412;51.350;17.056;2022-12-16T12:04:34;86.45;;;32.47;;
68432;SDS011;55412;51.350;17.056;2022-12-16T12:10:21;63.47;;;26.63;;
68432;SDS011;55412;51.350;17.056;2022-12-16T12:23:45;60.95;;;24.70;;
68432;SDS011;55412;51.350;17.056;2022-12-16T12:26:51;59.27;;;25.50;;
68432;SDS011;55412;51.350;17.056;2022-12-16T12:30:05;54.67;;;21.80;;
68432;SDS011;55412;51.350;17.056;2022-12-16T12:33:00;55.33;;;21.73;;
68432;SDS011;55412;51.350;17.056;2022-12-16T12:36:10;57.67;;;24.40;;
68432;SDS011;55412;51.350;17.056;2022-12-16T12:48:30;72.13;;;21.05;;
68432;SDS011;55412;51.350;17.056;2022-12-16T12:55:20;58.72;;;22.60;;
68432;SDS011;55412;51.350;17.056;2022-12-16T12:58:15;61.30;;;24.10;;
68432;SDS011;55412;51.350;17.056;2022-12-16T13:01:01;59.83;;;24.33;;
68432;SDS011;55412;51.350;17.056;2022-12-16T13:04:01;61.03;;;23.33;;
68432;SDS011;55412;51.350;17.056;2022-12-16T13:07:03;70.68;;;26.90;;
68432;SDS011;55412;51.350;17.056;2022-12-16T13:16:02;57.78;;;23.48;;
68432;SDS011;55412;51.350;17.056;2022-12-16T13:22:30;67.82;;;27.08;;
68432;SDS011;55412;51.350;17.056;2022-12-16T13:29:01;67.80;;;26.00;;
68432;SDS011;55412;51.350;17.056;2022-12-16T13:35:02;72.28;;;27.30;;
68432;SDS011;55412;51.350;17.056;2022-12-16T13:38:02;67.63;;;26.88;;
68432;SDS011;55412;51.350;17.056;2022-12-16T13:44:11;65.97;;;26.47;;
68432;SDS011;55412;51.350;17.056;2022-12-16T13:47:32;78.75;;;26.25;;
68432;SDS011;55412;51.350;17.056;2022-12-16T13:53:42;69.70;;;26.10;;
68432;SDS011;55412;51.350;17.056;2022-12-16T13:56:39;56.22;;;23.45;;
68432;SDS011;55412;51.350;17.056;2022-12-16T13:59:29;66.40;;;25.23;;
68432;SDS011;55412;51.350;17.056;2022-12-16T14:05:13;72.32;;;25.45;;
68432;SDS011;55412;51.350;17.056;2022-12-16T14:08:05;59.80;;;24.25;;
68432;SDS011;55412;51.350;17.056;2022-12-16T14:11:03;73.70;;;32.45;;
68432;SDS011;55412;51.350;17.056;2022-12-16T14:14:16;87.27;;;32.80;;
68432;SDS011;55412;51.350;17.056;2022-12-16T14:17:12;91.22;;;33.38;;
68432;SDS011;55412;51.350;17.056;2022-12-16T14:26:17;90.82;;;38.90;;
68432;SDS011;55412;51.350;17.056;2022-12-16T14:29:03;76.30;;;32.57;;
68432;SDS011;55412;51.350;17.056;2022-12-16T14:32:27;65.65;;;27.33;;
68432;SDS011;55412;51.350;17.056;2022-12-16T14:35:18;75.70;;;28.83;;
68432;SDS011;55412;51.350;17.056;2022-12-16T14:41:09;62.30;;;25.13;;
68432;SDS011;55412;51.350;17.056;2022-12-16T14:44:21;64.27;;;24.23;;
68432;SDS011;55412;51.350;17.056;2022-12-16T14:47:17;88.85;;;33.63;;
68432;SDS011;55412;51.350;17.056;2022-12-16T14:50:14;73.85;;;26.65;;
68432;SDS011;55412;51.350;17.056;2022-12-16T14:53:13;68.75;;;27.33;;
68432;SDS011;55412;51.350;17.056;2022-12-16T14:56:17;69.18;;;27.02;;
68432;SDS011;55412;51.350;17.056;2022-12-16T15:02:25;76.88;;;26.15;;
68432;SDS011;55412;51.350;17.056;2022-12-16T15:05:33;76.22;;;27.42;;
68432;SDS011;55412;51.350;17.056;2022-12-16T15:08:20;75.97;;;27.95;;
68432;SDS011;55412;51.350;17.056;2022-12-16T15:11:06;81.00;;;33.25;;
68432;SDS011;55412;51.350;17.056;2022-12-16T15:13:56;85.93;;;33.03;;
68432;SDS011;55412;51.350;17.056;2022-12-16T15:16:46;324.58;;;100.22;;
68432;SDS011;55412;51.350;17.056;2022-12-16T15:19:40;84.15;;;31.30;;
68432;SDS011;55412;51.350;17.056;2022-12-16T15:22:29;68.88;;;26.65;;
68432;SDS011;55412;51.350;17.056;2022-12-16T15:25:18;63.20;;;25.40;;
68432;SDS011;55412;51.350;17.056;2022-12-16T15:28:21;64.13;;;23.87;;
68432;SDS011;55412;51.350;17.056;2022-12-16T15:31:29;79.82;;;30.60;;
68432;SDS011;55412;51.350;17.056;2022-12-16T15:34:25;59.35;;;23.63;;
68432;SDS011;55412;51.350;17.056;2022-12-16T15:37:36;58.22;;;25.30;;
68432;SDS011;55412;51.350;17.056;2022-12-16T15:40:24;67.03;;;25.90;;
68432;SDS011;55412;51.350;17.056;2022-12-16T15:43:29;63.87;;;23.63;;
68432;SDS011;55412;51.350;17.056;2022-12-16T15:46:19;68.72;;;26.20;;
68432;SDS011;55412;51.350;17.056;2022-12-16T15:49:23;76.93;;;27.98;;
68432;SDS011;55412;51.350;17.056;2022-12-16T15:52:35;58.95;;;22.90;;
68432;SDS011;55412;51.350;17.056;2022-12-16T15:55:29;70.47;;;29.15;;
68432;SDS011;55412;51.350;17.056;2022-12-16T16:01:19;70.70;;;27.05;;
68432;SDS011;55412;51.350;17.056;2022-12-16T16:04:40;81.05;;;31.65;;
68432;SDS011;55412;51.350;17.056;2022-12-16T16:07:19;79.20;;;27.98;;
68432;SDS011;55412;51.350;17.056;2022-12-16T16:10:21;64.45;;;23.67;;
68432;SDS011;55412;51.350;17.056;2022-12-16T16:13:07;76.67;;;28.53;;
68432;SDS011;55412;51.350;17.056;2022-12-16T16:15:53;69.10;;;26.45;;
68432;SDS011;55412;51.350;17.056;2022-12-16T16:18:39;79.05;;;29.00;;
68432;SDS011;55412;51.350;17.056;2022-12-16T16:21:24;93.78;;;35.85;;
68432;SDS011;55412;51.350;17.056;2022-12-16T16:24:10;81.78;;;31.60;;
68432;SDS011;55412;51.350;17.056;2022-12-16T16:26:56;74.93;;;27.13;;
68432;SDS011;55412;51.350;17.056;2022-12-16T16:29:44;73.55;;;27.65;;
68432;SDS011;55412;51.350;17.056;2022-12-16T16:32:29;63.72;;;25.50;;
68432;SDS011;55412;51.350;17.056;2022-12-16T16:35:14;66.28;;;25.67;;
68432;SDS011;55412;51.350;17.056;2022-12-16T16:37:58;66.97;;;26.70;;
68432;SDS011;55412;51.350;17.056;2022-12-16T16:40:45;68.10;;;27.90;;
68432;SDS011;55412;51.350;17.056;2022-12-16T16:43:29;68.07;;;24.02;;
68432;SDS011;55412;51.350;17.056;2022-12-16T16:49:19;70.45;;;28.08;;
68432;SDS011;55412;51.350;17.056;2022-12-16T16:52:11;71.10;;;26.77;;
68432;SDS011;55412;51.350;17.056;2022-12-16T16:54:59;73.43;;;28.47;;
68432;SDS011;55412;51.350;17.056;2022-12-16T16:57:54;70.53;;;28.35;;
68432;SDS011;55412;51.350;17.056;2022-12-16T17:00:38;68.55;;;26.73;;
68432;SDS011;55412;51.350;17.056;2022-12-16T17:03:23;75.75;;;29.20;;
68432;SDS011;55412;51.350;17.056;2022-12-16T17:06:07;74.55;;;26.77;;
68432;SDS011;55412;51.350;17.056;2022-12-16T17:08:52;78.40;;;29.13;;
68432;SDS011;55412;51.350;17.056;2022-12-16T17:11:37;77.00;;;29.45;;
68432;SDS011;55412;51.350;17.056;2022-12-16T17:14:21;75.57;;;28.67;;
68432;SDS011;55412;51.350;17.056;2022-12-16T17:17:06;68.18;;;27.00;;
68432;SDS011;55412;51.350;17.056;2022-12-16T17:19:52;77.15;;;30.48;;
68432;SDS011;55412;51.350;17.056;2022-12-16T17:22:37;75.83;;;31.23;;
68432;SDS011;55412;51.350;17.056;2022-12-16T17:25:22;73.35;;;27.98;;
68432;SDS011;55412;51.350;17.056;2022-12-16T17:28:08;83.05;;;31.05;;
68432;SDS011;55412;51.350;17.056;2022-12-16T17:30:53;85.18;;;34.97;;
68432;SDS011;55412;51.350;17.056;2022-12-16T17:33:37;81.45;;;30.33;;
68432;SDS011;55412;51.350;17.056;2022-12-16T17:36:22;88.90;;;34.03;;
68432;SDS011;55412;51.350;17.056;2022-12-16T17:39:07;85.38;;;33.78;;
68432;SDS011;55412;51.350;17.056;2022-12-16T17:41:54;103.18;;;40.10;;
68432;SDS011;55412;51.350;17.056;2022-12-16T17:44:38;117.30;;;47.65;;
68432;SDS011;55412;51.350;17.056;2022-12-16T17:47:23;122.30;;;54.13;;
68432;SDS011;55412;51.350;17.056;2022-12-16T17:50:08;95.90;;;42.50;;
68432;SDS011;55412;51.350;17.056;2022-12-16T17:52:53;87.05;;;35.20;;
68432;SDS011;55412;51.350;17.056;2022-12-16T17:55:39;76.57;;;32.42;;
68432;SDS011;55412;51.350;17.056;2022-12-16T17:58:31;91.30;;;35.10;;